Time;durP1;ratioP1;P1;durP2;ratioP2;P2;SDS_P1;SDS_P2;PMS_P1;PMS_P2;Temp;Humidity;BMP_temperature;BMP_pressure;BME280_temperature;BME280_humidity;BME280_pressure;Samples;Min_cycle;Max_cycle;Signal;HPM_P1;HPM_P2
2023/11/27 00:01:09;;;;;;;;;;;77.70;2227.20;;;;;;4990003;28;19953;-73
2023/11/27 00:03:34;;;;;;;;;;;77.70;2227.20;;;;;;4985100;28;20430;-74
2023/11/27 00:06:00;;;;;;;;;;;77.70;2227.20;;;;;;4973544;28;20513;-73
2023/11/27 00:08:26;;;;;;;;;;;77.70;2227.20;;;;;;4983097;28;19906;-73
2023/11/27 00:10:51;;;;;;;;;;;77.60;2227.20;;;;;;4964629;28;20044;-73
2023/11/27 00:13:17;;;;;;;;;;;77.50;2227.20;;;;;;4985541;28;19905;-73
2023/11/27 00:15:42;;;;;;;;;;;77.40;2227.20;;;;;;4990898;28;20284;-74
2023/11/27 00:18:08;;;;;;;;;;;77.40;2227.20;;;;;;4994145;28;19906;-74
2023/11/27 00:20:34;;;;;;;;;;;77.40;2227.20;;;;;;4972853;28;20287;-75
2023/11/27 00:22:59;;;;;;;;;;;77.40;2227.20;;;;;;4991183;28;19925;-74
2023/11/27 00:25:25;;;;;;;;;;;77.40;2227.20;;;;;;4994083;28;19992;-74
2023/11/27 00:27:51;;;;;;;;;;;77.40;2227.20;;;;;;4993699;28;19928;-74
2023/11/27 00:30:17;;;;;;;;;;;77.30;2227.20;;;;;;4999768;28;20260;-74
2023/11/27 00:32:42;;;;;;;;;;;77.20;2227.20;;;;;;5000314;28;19914;-75
2023/11/27 00:35:08;;;;;;;;;;;77.20;2227.20;;;;;;5000249;28;19913;-74
2023/11/27 00:37:34;;;;;;;;;;;77.10;2227.20;;;;;;5000267;28;19992;-74
2023/11/27 00:39:59;;;;;;;;;;;77.10;2227.20;;;;;;5000325;28;19913;-74
2023/11/27 00:42:25;;;;;;;;;;;77.00;2227.20;;;;;;5000087;28;20319;-74
2023/11/27 00:44:50;;;;;;;;;;;77.00;2227.20;;;;;;5000462;28;19945;-74
2023/11/27 00:47:17;;;;;;;;;;;77.00;2227.20;;;;;;5000158;28;19910;-74
2023/11/27 00:49:43;;;;;;;;;;;77.10;2227.20;;;;;;4982669;28;20391;-73
2023/11/27 00:52:08;;;;;;;;;;;77.20;2227.20;;;;;;5000137;28;19909;-73
2023/11/27 00:54:34;;;;;;;;;;;77.20;2227.20;;;;;;5000520;28;20017;-73
2023/11/27 00:57:00;;;;;;;;;;;77.20;2227.20;;;;;;5000251;28;19910;-74
2023/11/27 00:59:26;;;;;;;;;;;77.20;2227.20;;;;;;5000204;28;19996;-74
2023/11/27 01:01:51;;;;;;;;;;;77.20;2227.20;;;;;;4982541;28;19933;-74
2023/11/27 01:04:17;;;;;;;;;;;77.20;2227.20;;;;;;5000285;28;19914;-74
2023/11/27 01:06:43;;;;;;;;;;;77.20;2227.20;;;;;;5000198;28;19916;-75
2023/11/27 01:09:09;;;;;;;;;;;77.40;2227.20;;;;;;5000260;28;19912;-74
2023/11/27 01:11:34;;;;;;;;;;;77.40;2227.20;;;;;;4999910;28;20304;-74
2023/11/27 01:14:00;;;;;;;;;;;77.40;2227.20;;;;;;5000329;28;19943;-73
2023/11/27 01:16:26;;;;;;;;;;;77.40;2227.20;;;;;;4999923;28;19905;-75
2023/11/27 01:18:52;;;;;;;;;;;77.40;2227.20;;;;;;5000042;28;20375;-74
2023/11/27 01:21:17;;;;;;;;;;;77.20;2227.20;;;;;;4999436;28;19917;-74
2023/11/27 01:23:43;;;;;;;;;;;77.40;2227.20;;;;;;5000012;28;19926;-74
2023/11/27 01:26:09;;;;;;;;;;;77.40;2227.20;;;;;;4999823;28;19913;-74
2023/11/27 01:28:36;;;;;;;;;;;77.30;2227.20;;;;;;4999990;28;19905;-74
2023/11/27 01:31:03;;;;;;;;;;;77.40;2227.20;;;;;;4999720;28;19960;-73
2023/11/27 01:33:29;;;;;;;;;;;102.40;2227.20;;;;;;5000434;28;20255;-74
2023/11/27 01:35:54;;;;;;;;;;;77.40;2227.20;;;;;;4999802;28;19910;-74
2023/11/27 01:38:20;;;;;;;;;;;77.40;2227.20;;;;;;5000003;28;19992;-74
2023/11/27 01:40:45;;;;;;;;;;;77.40;2227.20;;;;;;4997042;28;19933;-74
2023/11/27 01:43:14;;;;;;;;;;;77.40;2227.20;;;;;;4996711;28;19959;-74
2023/11/27 01:45:40;;;;;;;;;;;77.40;2227.20;;;;;;4996623;28;19905;-74
2023/11/27 01:48:06;;;;;;;;;;;77.40;2227.20;;;;;;4979200;28;20275;-74
2023/11/27 01:50:31;;;;;;;;;;;77.40;2227.20;;;;;;4996652;28;19910;-74
2023/11/27 01:52:57;;;;;;;;;;;77.40;2227.20;;;;;;4996485;28;19933;-74
2023/11/27 01:55:24;;;;;;;;;;;77.40;2227.20;;;;;;4996524;28;20013;-74
2023/11/27 01:57:50;;;;;;;;;;;77.40;2227.20;;;;;;4996596;28;20356;-75
2023/11/27 02:00:16;;;;;;;;;;;77.50;2227.20;;;;;;4978298;28;19906;-74
2023/11/27 02:02:44;;;;;;;;;;;77.60;2227.20;;;;;;4979004;28;19920;-74
2023/11/27 02:05:09;;;;;;;;;;;77.60;2227.20;;;;;;4978683;28;19906;-74
2023/11/27 02:07:35;;;;;;;;;;;77.60;2227.20;;;;;;4996459;28;20001;-75
2023/11/27 02:10:01;;;;;;;;;;;77.60;2227.20;;;;;;4996237;28;19993;-75
2023/11/27 02:12:27;;;;;;;;;;;77.50;2227.20;;;;;;4996194;28;19905;-74
2023/11/27 02:14:53;;;;;;;;;;;77.50;2227.20;;;;;;4996128;28;19956;-74
2023/11/27 02:17:19;;;;;;;;;;;77.50;2227.20;;;;;;4996057;28;19905;-75
2023/11/27 02:19:44;;;;;;;;;;;77.50;2227.20;;;;;;4995939;28;19945;-74
2023/11/27 02:22:10;;;;;;;;;;;77.60;2227.20;;;;;;4995914;28;19928;-74
2023/11/27 02:24:36;;;;;;;;;;;77.50;2227.20;;;;;;4995944;28;19910;-74
2023/11/27 02:27:01;;;;;;;;;;;77.50;2227.20;;;;;;4978295;28;19929;-73
2023/11/27 02:29:27;;;;;;;;;;;77.40;2227.20;;;;;;4995882;28;19905;-74
2023/11/27 02:31:52;;;;;;;;;;;77.40;2227.20;;;;;;4996017;28;19909;-75
2023/11/27 02:34:18;;;;;;;;;;;77.50;2227.20;;;;;;4995671;28;19913;-74
2023/11/27 02:36:44;;;;;;;;;;;77.60;2227.20;;;;;;4995871;28;19932;-75
2023/11/27 02:39:09;;;;;;;;;;;77.50;2227.20;;;;;;4995697;28;19906;-75
2023/11/27 02:41:36;;;;;;;;;;;77.50;2227.20;;;;;;4978230;28;20336;-74
2023/11/27 02:44:02;;;;;;;;;;;77.40;2227.20;;;;;;4995440;28;19976;-75
2023/11/27 02:46:28;;;;;;;;;;;77.50;2227.20;;;;;;4995647;28;20419;-74
2023/11/27 02:48:54;;;;;;;;;;;77.50;2227.20;;;;;;4977945;28;20009;-74
2023/11/27 02:51:20;;;;;;;;;;;77.40;2227.20;;;;;;4995365;28;19917;-73
2023/11/27 02:53:46;;;;;;;;;;;77.50;2227.20;;;;;;4995371;28;20421;-75
2023/11/27 02:56:13;;;;;;;;;;;77.60;2227.20;;;;;;4995464;28;19906;-75
2023/11/27 02:58:39;;;;;;;;;;;77.70;2227.20;;;;;;4977506;28;19913;-75
2023/11/27 03:01:07;;;;;;;;;;;77.50;2227.20;;;;;;4978250;28;19906;-75
2023/11/27 03:03:34;;;;;;;;;;;77.40;2227.20;;;;;;4995253;28;19917;-74
2023/11/27 03:06:00;;;;;;;;;;;77.40;2227.20;;;;;;4995347;28;19906;-74
2023/11/27 03:08:25;;;;;;;;;;;77.30;2227.20;;;;;;4995136;28;20280;-74
2023/11/27 03:10:51;;;;;;;;;;;77.30;2227.20;;;;;;4977891;28;19949;-75
2023/11/27 03:13:17;;;;;;;;;;;77.30;2227.20;;;;;;4994855;28;19952;-74
2023/11/27 03:15:42;;;;;;;;;;;77.20;2227.20;;;;;;4995205;28;20342;-75
2023/11/27 03:18:08;;;;;;;;;;;77.20;2227.20;;;;;;4977572;28;19913;-75
2023/11/27 03:20:33;;;;;;;;;;;77.20;2227.20;;;;;;4994856;28;19921;-74
2023/11/27 03:22:59;;;;;;;;;;;77.20;2227.20;;;;;;4994746;28;20019;-75
2023/11/27 03:25:25;;;;;;;;;;;77.30;2227.20;;;;;;4977443;28;20382;-73
2023/11/27 03:27:50;;;;;;;;;;;77.40;2227.20;;;;;;4994695;28;19906;-74
2023/11/27 03:30:16;;;;;;;;;;;77.40;2227.20;;;;;;4994732;28;20275;-74
2023/11/27 03:32:41;;;;;;;;;;;77.40;2227.20;;;;;;4994814;28;19952;-75
2023/11/27 03:35:08;;;;;;;;;;;77.50;2227.20;;;;;;4994781;28;19906;-73
2023/11/27 03:37:33;;;;;;;;;;;77.70;2227.20;;;;;;4994771;28;19910;-74
2023/11/27 03:39:59;;;;;;;;;;;77.70;2227.20;;;;;;4994713;28;20339;-73
2023/11/27 03:42:26;;;;;;;;;;;102.40;2227.20;;;;;;4994284;28;19913;-74
2023/11/27 03:44:52;;;;;;;;;;;77.70;2227.20;;;;;;4994441;28;19906;-73
2023/11/27 03:47:17;;;;;;;;;;;77.70;2227.20;;;;;;4994470;28;20000;-74
2023/11/27 03:49:43;;;;;;;;;;;77.70;2227.20;;;;;;4994521;28;19924;-75
2023/11/27 03:52:08;;;;;;;;;;;77.70;2227.20;;;;;;4976865;28;20475;-74
2023/11/27 03:54:34;;;;;;;;;;;77.70;2227.20;;;;;;4994462;28;19906;-75
2023/11/27 03:56:59;;;;;;;;;;;102.40;2227.20;;;;;;4976948;28;20388;-75
2023/11/27 03:59:26;;;;;;;;;;;102.50;2227.20;;;;;;4994094;28;19968;-73
2023/11/27 04:01:52;;;;;;;;;;;102.60;2227.20;;;;;;4994048;28;19906;-74
2023/11/27 04:04:18;;;;;;;;;;;102.60;2227.20;;;;;;4993478;28;19914;-75
2023/11/27 04:06:45;;;;;;;;;;;102.50;2227.20;;;;;;4994117;28;19906;-74
2023/11/27 04:09:13;;;;;;;;;;;102.40;2227.20;;;;;;4994213;28;20352;-75
2023/11/27 04:11:39;;;;;;;;;;;102.40;2227.20;;;;;;4976209;28;20363;-74
2023/11/27 04:14:04;;;;;;;;;;;102.40;2227.20;;;;;;4994070;28;19953;-74
2023/11/27 04:16:30;;;;;;;;;;;102.40;2227.20;;;;;;4993978;28;19906;-73
2023/11/27 04:18:56;;;;;;;;;;;102.40;2227.20;;;;;;4976688;28;20103;-74
2023/11/27 04:21:21;;;;;;;;;;;102.50;2227.20;;;;;;4993718;28;20442;-75
2023/11/27 04:23:47;;;;;;;;;;;102.50;2227.20;;;;;;4993972;28;19917;-74
2023/11/27 04:26:14;;;;;;;;;;;102.40;2227.20;;;;;;4976387;28;19956;-74
2023/11/27 04:28:40;;;;;;;;;;;102.50;2227.20;;;;;;4993957;28;19906;-75
2023/11/27 04:31:06;;;;;;;;;;;102.60;2227.20;;;;;;4993830;28;19906;-74
2023/11/27 04:33:33;;;;;;;;;;;77.70;2227.20;;;;;;4993983;28;19918;-75
2023/11/27 04:35:58;;;;;;;;;;;77.40;2227.20;;;;;;4976401;28;19956;-74
2023/11/27 04:38:24;;;;;;;;;;;77.00;2227.20;;;;;;4993898;28;19996;-75
2023/11/27 04:40:50;;;;;;;;;;;52.10;2227.20;;;;;;4976277;28;19912;-74
2023/11/27 04:43:16;;;;;;;;;;;52.00;2227.20;;;;;;4976265;28;20005;-74
2023/11/27 04:45:41;;;;;;;;;;;52.00;2227.20;;;;;;4993632;28;19953;-74
2023/11/27 04:48:07;;;;;;;;;;;76.90;2227.20;;;;;;4993843;28;19928;-74
2023/11/27 04:50:33;;;;;;;;;;;76.90;2227.20;;;;;;4993460;28;19957;-74
2023/11/27 04:52:58;;;;;;;;;;;76.90;2227.20;;;;;;4993788;28;19910;-74
2023/11/27 04:55:24;;;;;;;;;;;76.90;2227.20;;;;;;4993643;28;19941;-74
2023/11/27 04:57:49;;;;;;;;;;;76.80;2227.20;;;;;;4976213;28;19968;-75
2023/11/27 05:00:15;;;;;;;;;;;76.90;2227.20;;;;;;4993389;28;19913;-74
2023/11/27 05:02:43;;;;;;;;;;;77.00;2227.20;;;;;;4993534;28;19941;-75
2023/11/27 05:05:09;;;;;;;;;;;77.00;2227.20;;;;;;4993537;28;20348;-73
2023/11/27 05:07:35;;;;;;;;;;;77.20;2227.20;;;;;;4993672;28;19952;-73
2023/11/27 05:10:00;;;;;;;;;;;77.40;2227.20;;;;;;4993643;28;19975;-74
2023/11/27 05:12:26;;;;;;;;;;;77.50;2227.20;;;;;;4993448;28;20005;-73
2023/11/27 05:14:52;;;;;;;;;;;77.60;2227.20;;;;;;4976794;28;19920;-73
2023/11/27 05:17:17;;;;;;;;;;;77.60;2227.20;;;;;;4997358;28;19948;-73
2023/11/27 05:19:43;;;;;;;;;;;77.60;2227.20;;;;;;4989156;28;20017;-73
2023/11/27 05:22:09;;;;;;;;;;;77.70;2227.20;;;;;;4991104;28;19928;-73
2023/11/27 05:24:34;;;;;;;;;;;77.70;2227.20;;;;;;4990153;28;20356;-74
2023/11/27 05:27:00;;;;;;;;;;;77.70;2227.20;;;;;;4988895;28;20328;-73
2023/11/27 05:29:26;;;;;;;;;;;77.70;2227.20;;;;;;4985508;28;20348;-74
2023/11/27 05:31:51;;;;;;;;;;;102.50;2227.20;;;;;;4987301;28;19913;-73
2023/11/27 05:34:17;;;;;;;;;;;102.40;2227.20;;;;;;4996570;28;19906;-75
2023/11/27 05:36:43;;;;;;;;;;;77.70;2227.20;;;;;;4978691;28;20367;-75
2023/11/27 05:39:10;;;;;;;;;;;102.40;2227.20;;;;;;4976697;28;20013;-75
2023/11/27 05:41:38;;;;;;;;;;;77.70;2227.20;;;;;;4992013;28;19957;-76
2023/11/27 05:44:06;;;;;;;;;;;77.70;2227.20;;;;;;4968716;28;19925;-75
2023/11/27 05:46:32;;;;;;;;;;;77.70;2227.20;;;;;;4995877;28;19952;-75
2023/11/27 05:48:59;;;;;;;;;;;102.40;2227.20;;;;;;4990699;28;19910;-75
2023/11/27 05:51:25;;;;;;;;;;;77.70;2227.20;;;;;;4993187;28;19942;-76
2023/11/27 05:53:51;;;;;;;;;;;77.70;2227.20;;;;;;4993375;28;19914;-79
2023/11/27 05:56:16;;;;;;;;;;;102.40;2227.20;;;;;;4988544;28;20356;-78
2023/11/27 05:58:42;;;;;;;;;;;77.70;2227.20;;;;;;4990950;28;19920;-77
2023/11/27 06:01:08;;;;;;;;;;;102.40;2227.20;;;;;;4969438;28;19906;-77
2023/11/27 06:03:36;;;;;;;;;;;102.50;2227.20;;;;;;4978487;28;19917;-79
2023/11/27 06:06:04;;;;;;;;;;;102.50;2227.20;;;;;;4972957;28;20356;-76
2023/11/27 06:08:30;;;;;;;;;;;102.50;2227.20;;;;;;4972900;28;19906;-76
2023/11/27 06:10:55;;;;;;;;;;;102.50;2227.20;;;;;;4973248;28;20308;-75
2023/11/27 06:13:21;;;;;;;;;;;102.50;2227.20;;;;;;4992306;28;19906;-76
2023/11/27 06:15:47;;;;;;;;;;;102.50;2227.20;;;;;;4971963;28;20458;-82
2023/11/27 06:18:14;;;;;;;;;;;102.60;2227.20;;;;;;4977551;28;19914;-76
2023/11/27 06:20:40;;;;;;;;;;;102.50;2227.20;;;;;;4991361;28;19917;-75
2023/11/27 06:23:05;;;;;;;;;;;102.60;2227.20;;;;;;4990139;28;19918;-75
2023/11/27 06:25:31;;;;;;;;;;;102.60;2227.20;;;;;;4968214;28;19912;-77
2023/11/27 06:27:56;;;;;;;;;;;102.60;2227.20;;;;;;4991556;28;19933;-76
2023/11/27 06:30:23;;;;;;;;;;;102.60;2227.20;;;;;;4969876;28;20004;-75
2023/11/27 06:32:48;;;;;;;;;;;102.60;2227.20;;;;;;4967612;28;19910;-76
2023/11/27 06:35:14;;;;;;;;;;;102.70;2227.20;;;;;;4970143;28;19952;-76
2023/11/27 06:37:39;;;;;;;;;;;102.80;2227.20;;;;;;4990526;28;19914;-75
2023/11/27 06:40:05;;;;;;;;;;;102.90;2227.20;;;;;;4969484;28;19914;-76
2023/11/27 06:42:31;;;;;;;;;;;102.70;2227.20;;;;;;4967637;28;19913;-76
2023/11/27 06:44:56;;;;;;;;;;;102.80;2227.20;;;;;;4989567;28;19913;-76
2023/11/27 06:47:22;;;;;;;;;;;102.70;2227.20;;;;;;4971162;28;20470;-76
2023/11/27 06:49:47;;;;;;;;;;;102.80;2227.20;;;;;;4977918;28;19910;-77
2023/11/27 06:52:13;;;;;;;;;;;102.80;2227.20;;;;;;4966207;28;19918;-77
2023/11/27 06:54:39;;;;;;;;;;;102.80;2227.20;;;;;;4965609;28;19910;-77
2023/11/27 06:57:05;;;;;;;;;;;102.90;2227.20;;;;;;4970355;28;19913;-82
2023/11/27 06:59:30;;;;;;;;;;;103.00;2227.20;;;;;;4985534;28;19906;-78
2023/11/27 07:01:56;;;;;;;;;;;102.90;2227.20;;;;;;4994140;28;19912;-77
2023/11/27 07:04:21;;;;;;;;;;;102.80;2227.20;;;;;;4967104;28;19914;-78
2023/11/27 07:06:47;;;;;;;;;;;102.90;2227.20;;;;;;4987011;28;19941;-79
2023/11/27 07:09:15;;;;;;;;;;;102.90;2227.20;;;;;;4992111;28;20391;-78
2023/11/27 07:11:40;;;;;;;;;;;102.80;2227.20;;;;;;4986918;28;20245;-79
2023/11/27 07:14:06;;;;;;;;;;;102.70;2227.20;;;;;;4995100;28;19975;-80
2023/11/27 07:16:31;;;;;;;;;;;102.80;2227.20;;;;;;4976837;28;19913;-79
2023/11/27 07:18:57;;;;;;;;;;;102.80;2227.20;;;;;;4973354;28;20000;-79
2023/11/27 07:21:27;;;;;;;;;;;102.80;2227.20;;;;;;4986132;28;20004;-80
2023/11/27 07:23:56;;;;;;;;;;;102.90;2227.20;;;;;;4983968;28;19918;-79
2023/11/27 07:26:24;;;;;;;;;;;102.80;2227.20;;;;;;4990615;28;19944;-80
2023/11/27 07:28:50;;;;;;;;;;;102.80;2227.20;;;;;;4993331;28;19905;-78
2023/11/27 07:31:18;;;;;;;;;;;102.90;2227.20;;;;;;4986983;28;20370;-79
2023/11/27 07:33:44;;;;;;;;;;;102.90;2227.20;;;;;;4980352;28;19917;-79
2023/11/27 07:36:10;;;;;;;;;;;102.90;2227.20;;;;;;4992904;28;19906;-78
2023/11/27 07:38:36;;;;;;;;;;;102.90;2227.20;;;;;;4986140;28;20217;-78
2023/11/27 07:41:05;;;;;;;;;;;102.90;2227.20;;;;;;4975228;28;19929;-78
2023/11/27 07:43:31;;;;;;;;;;;102.90;2227.20;;;;;;4966875;28;19914;-78
2023/11/27 07:45:57;;;;;;;;;;;102.80;2227.20;;;;;;4989863;28;19906;-77
2023/11/27 07:48:22;;;;;;;;;;;102.80;2227.20;;;;;;4990113;28;20403;-78
2023/11/27 07:50:51;;;;;;;;;;;102.90;2227.20;;;;;;4987523;28;19949;-78
2023/11/27 07:53:20;;;;;;;;;;;102.80;2227.20;;;;;;4963397;28;19984;-77
2023/11/27 07:55:46;;;;;;;;;;;102.80;2227.20;;;;;;4973864;28;19988;-77
2023/11/27 07:58:14;;;;;;;;;;;102.80;2227.20;;;;;;4985868;28;19979;-77
2023/11/27 08:00:40;;;;;;;;;;;102.60;2227.20;;;;;;4988907;28;19909;-78
2023/11/27 08:03:06;;;;;;;;;;;102.60;2227.20;;;;;;4976800;28;20287;-76
2023/11/27 08:05:32;;;;;;;;;;;102.80;2227.20;;;;;;4973865;28;20370;-77
2023/11/27 08:07:58;;;;;;;;;;;102.80;2227.20;;;;;;4990378;28;19912;-77
2023/11/27 08:10:23;;;;;;;;;;;102.90;2227.20;;;;;;4975217;28;20507;-77
2023/11/27 08:12:49;;;;;;;;;;;102.90;2227.20;;;;;;4970523;28;19910;-76
2023/11/27 08:15:18;;;;;;;;;;;102.80;2227.20;;;;;;4970490;28;20245;-77
2023/11/27 08:17:44;;;;;;;;;;;102.90;2227.20;;;;;;4989502;28;20315;-77
2023/11/27 08:20:10;;;;;;;;;;;102.90;2227.20;;;;;;4969982;28;19910;-77
2023/11/27 08:22:36;;;;;;;;;;;103.00;2227.20;;;;;;4966566;28;19957;-77
2023/11/27 08:25:02;;;;;;;;;;;103.00;2227.20;;;;;;4962488;28;19917;-76
2023/11/27 08:27:28;;;;;;;;;;;103.10;2227.20;;;;;;4967862;28;19906;-77
2023/11/27 08:29:53;;;;;;;;;;;103.30;2227.20;;;;;;4973937;28;19910;-77
2023/11/27 08:32:19;;;;;;;;;;;103.30;2227.20;;;;;;4972872;28;19917;-77
2023/11/27 08:34:45;;;;;;;;;;;128.20;2252.80;;;;;;4990568;28;19906;-78
2023/11/27 08:37:16;;;;;;;;;;;128.40;2252.80;;;;;;4973811;28;20383;-77
2023/11/27 08:39:42;;;;;;;;;;;128.60;2252.80;;;;;;4990399;28;19989;-76
2023/11/27 08:42:08;;;;;;;;;;;128.70;2252.80;;;;;;4969830;28;19929;-78
2023/11/27 08:44:33;;;;;;;;;;;128.80;2252.80;;;;;;4970293;28;20372;-79
2023/11/27 08:46:59;;;;;;;;;;;128.70;2252.80;;;;;;4989393;28;20016;-80
2023/11/27 08:49:25;;;;;;;;;;;128.70;2252.80;;;;;;4986004;28;19917;-78
2023/11/27 08:51:50;;;;;;;;;;;128.70;2252.80;;;;;;4971527;28;20336;-81
2023/11/27 08:54:16;;;;;;;;;;;128.70;2252.80;;;;;;4977030;28;19906;-77
2023/11/27 08:56:43;;;;;;;;;;;128.80;2252.80;;;;;;4993663;28;19960;-79
2023/11/27 08:59:09;;;;;;;;;;;128.90;2252.80;;;;;;4968352;28;19906;-79
2023/11/27 09:01:35;;;;;;;;;;;128.90;2252.80;;;;;;4978637;28;19960;-80
2023/11/27 09:04:02;;;;;;;;;;;153.60;2252.80;;;;;;4992877;28;19918;-80
2023/11/27 09:06:28;;;;;;;;;;;153.60;2252.80;;;;;;4993272;28;20354;-80
2023/11/27 09:08:54;;;;;;;;;;;153.70;2252.80;;;;;;4994176;28;20356;-75
2023/11/27 09:11:20;;;;;;;;;;;153.80;2252.80;;;;;;4986896;28;19913;-76
2023/11/27 09:13:46;;;;;;;;;;;153.80;2252.80;;;;;;4990838;28;19960;-79
2023/11/27 09:16:11;;;;;;;;;;;153.80;2252.80;;;;;;4993880;28;19906;-77
2023/11/27 09:18:38;;;;;;;;;;;153.90;2252.80;;;;;;4993291;28;19993;-76
2023/11/27 09:21:04;;;;;;;;;;;154.30;2252.80;;;;;;4976035;28;20398;-75
2023/11/27 09:23:29;;;;;;;;;;;154.50;2252.80;;;;;;4992788;28;19917;-75
2023/11/27 09:25:55;;;;;;;;;;;179.20;2252.80;;;;;;4977542;28;19989;-75
2023/11/27 09:28:20;;;;;;;;;;;179.40;2227.20;;;;;;4978399;28;19906;-76
2023/11/27 09:30:47;;;;;;;;;;;179.70;2176.00;;;;;;4996211;28;19941;-79
2023/11/27 09:33:13;;;;;;;;;;;179.80;2124.80;;;;;;4990679;28;19914;-79
2023/11/27 09:35:39;;;;;;;;;;;179.90;2099.20;;;;;;4974951;28;19906;-79
2023/11/27 09:38:08;;;;;;;;;;;180.10;2073.60;;;;;;4992743;28;19917;-79
2023/11/27 09:40:38;;;;;;;;;;;205.10;2099.20;;;;;;4974220;28;19917;-79
2023/11/27 09:43:04;;;;;;;;;;;205.30;2048.00;;;;;;4969529;28;19977;-79
2023/11/27 09:45:31;;;;;;;;;;;205.50;2048.00;;;;;;4994939;28;19909;-80
2023/11/27 09:47:57;;;;;;;;;;;;;;;;;;4992422;28;19913;-78
2023/11/27 09:50:24;;;;;;;;;;;230.80;1920.00;;;;;;4978023;28;19917;-78
2023/11/27 09:52:52;;;;;;;;;;;231.10;1894.40;;;;;;4990788;28;19910;-80
2023/11/27 09:55:18;;;;;;;;;;;231.30;1868.80;;;;;;4976477;28;19921;-78
2023/11/27 09:57:45;;;;;;;;;;;231.10;1868.80;;;;;;4974329;28;19910;-77
2023/11/27 10:00:13;;;;;;;;;;;231.10;1843.20;;;;;;4975670;28;19906;-77
2023/11/27 10:02:38;;;;;;;;;;;230.90;1894.40;;;;;;4991526;28;20360;-79
2023/11/27 10:05:05;;;;;;;;;;;231.10;1843.20;;;;;;4977388;28;19917;-78
2023/11/27 10:07:34;;;;;;;;;;;231.10;1843.20;;;;;;4976674;28;19906;-78
2023/11/27 10:10:01;;;;;;;;;;;;;;;;;;4991995;28;20383;-78
2023/11/27 10:12:28;;;;;;;;;;;256.20;1817.60;;;;;;4973242;28;20395;-78
2023/11/27 10:14:57;;;;;;;;;;;256.00;1792.00;;;;;;4976255;28;19910;-77
2023/11/27 10:17:24;;;;;;;;;;;231.00;1792.00;;;;;;4991751;28;19968;-78
2023/11/27 10:19:53;;;;;;;;;;;231.00;1817.60;;;;;;4991643;28;20004;-78
2023/11/27 10:22:19;;;;;;;;;;;231.10;1817.60;;;;;;4978135;28;19921;-79
2023/11/27 10:24:44;;;;;;;;;;;231.30;1843.20;;;;;;4977449;28;19914;-78
2023/11/27 10:27:10;;;;;;;;;;;256.20;1843.20;;;;;;4992542;28;20398;-78
2023/11/27 10:29:36;;;;;;;;;;;256.30;1843.20;;;;;;4975900;28;19912;-78
2023/11/27 10:32:02;;;;;;;;;;;256.40;1792.00;;;;;;4968353;28;19968;-77
2023/11/27 10:34:32;;;;;;;;;;;281.60;1766.40;;;;;;4993507;28;20284;-77
2023/11/27 10:37:01;;;;;;;;;;;256.60;1792.00;;;;;;4990430;28;19967;-77
2023/11/27 10:39:31;;;;;;;;;;;256.50;1817.60;;;;;;4973133;28;20352;-78
2023/11/27 10:41:58;;;;;;;;;;;256.60;1817.60;;;;;;4993303;28;19905;-78
2023/11/27 10:44:25;;;;;;;;;;;256.10;1843.20;;;;;;4971191;28;19924;-78
2023/11/27 10:46:51;;;;;;;;;;;256.90;1868.80;;;;;;4989860;28;19948;-77
2023/11/27 10:49:19;;;;;;;;;;;231.30;1868.80;;;;;;4969652;28;19912;-78
2023/11/27 10:51:45;;;;;;;;;;;231.30;1817.60;;;;;;4982355;28;20335;-77
2023/11/27 10:54:14;;;;;;;;;;;231.20;1817.60;;;;;;4975480;28;19910;-79
2023/11/27 10:56:44;;;;;;;;;;;231.20;1792.00;;;;;;4992651;28;20398;-79
2023/11/27 10:59:12;;;;;;;;;;;231.20;1817.60;;;;;;4971004;28;19938;-78
2023/11/27 11:01:41;;;;;;;;;;;231.10;1843.20;;;;;;4959078;28;19912;-77
2023/11/27 11:04:11;;;;;;;;;;;231.00;1817.60;;;;;;4966281;28;19918;-77
2023/11/27 11:06:39;;;;;;;;;;;231.10;1843.20;;;;;;4962125;28;20359;-79
2023/11/27 11:09:07;;;;;;;;;;;231.00;1894.40;;;;;;4987039;28;20244;-78
2023/11/27 11:11:33;;;;;;;;;;;231.00;1868.80;;;;;;4971365;28;19961;-77
2023/11/27 11:13:59;;;;;;;;;;;231.00;1920.00;;;;;;4976524;28;19913;-79
2023/11/27 11:16:31;;;;;;;;;;;230.90;1996.80;;;;;;4973419;28;20001;-79
2023/11/27 11:19:12;;;;;;;;;;;230.90;1996.80;;;;;;4992933;28;19914;-78
2023/11/27 11:21:41;;;;;;;;;;;230.90;1971.20;;;;;;4961919;28;19918;-79
2023/11/27 11:24:08;;;;;;;;;;;230.80;2022.40;;;;;;4971330;28;20013;-77
2023/11/27 11:26:52;;;;;;;;;;;230.80;2022.40;;;;;;4968320;28;20000;-77
2023/11/27 11:29:18;;;;;;;;;;;230.70;1996.80;;;;;;4971201;28;20551;-77
2023/11/27 11:31:47;;;;;;;;;;;230.60;2048.00;;;;;;4969957;28;19918;-75
2023/11/27 11:34:20;;;;;;;;;;;230.70;2022.40;;;;;;4970619;28;19992;-77
2023/11/27 11:36:51;;;;;;;;;;;230.80;1971.20;;;;;;4973422;28;19913;-76
2023/11/27 11:39:19;;;;;;;;;;;230.70;1971.20;;;;;;4966654;28;19910;-77
2023/11/27 11:41:45;;;;;;;;;;;230.60;1945.60;;;;;;4970272;28;19977;-77
2023/11/27 11:44:17;;;;;;;;;;;230.50;2022.40;;;;;;4962880;28;20305;-77
2023/11/27 11:46:43;;;;;;;;;;;230.50;2099.20;;;;;;4965110;28;19910;-76
2023/11/27 11:49:10;;;;;;;;;;;230.40;2124.80;;;;;;4972074;28;19910;-77
2023/11/27 11:51:55;;;;;;;;;;;230.40;2150.40;;;;;;4974962;28;19910;-76
2023/11/27 11:54:32;;;;;;;;;;;230.50;2124.80;;;;;;4977208;28;19914;-77
2023/11/27 11:57:13;;;;;;;;;;;230.50;2099.20;;;;;;4982173;28;19906;-77
2023/11/27 11:59:39;;;;;;;;;;;230.50;2150.40;;;;;;4963543;28;19961;-76
2023/11/27 12:02:14;;;;;;;;;;;230.40;2150.40;;;;;;4959137;28;19945;-77
2023/11/27 12:04:43;;;;;;;;;;;230.40;2150.40;;;;;;4968702;28;19929;-76
2023/11/27 12:07:09;;;;;;;;;;;230.40;2176.00;;;;;;4973204;28;19945;-76
2023/11/27 12:09:35;;;;;;;;;;;230.50;2150.40;;;;;;4980816;28;20376;-75
2023/11/27 12:12:01;;;;;;;;;;;230.80;2176.00;;;;;;4970738;28;19961;-77
2023/11/27 12:14:28;;;;;;;;;;;230.60;2150.40;;;;;;4965286;28;19910;-77
2023/11/27 12:16:54;;;;;;;;;;;230.60;2176.00;;;;;;4967222;28;19954;-77
2023/11/27 12:19:22;;;;;;;;;;;230.60;2201.60;;;;;;4986607;28;19910;-76
2023/11/27 12:21:52;;;;;;;;;;;230.70;2201.60;;;;;;4959204;28;20401;-76
2023/11/27 12:24:19;;;;;;;;;;;230.70;2176.00;;;;;;4965950;28;19918;-76
2023/11/27 12:26:53;;;;;;;;;;;230.80;2150.40;;;;;;4968596;28;19927;-77
2023/11/27 12:29:19;;;;;;;;;;;230.80;2150.40;;;;;;4971218;28;19906;-75
2023/11/27 12:31:45;;;;;;;;;;;231.00;2124.80;;;;;;4966214;28;19913;-77
2023/11/27 12:34:14;;;;;;;;;;;231.00;2124.80;;;;;;4967103;28;19953;-77
2023/11/27 12:36:40;;;;;;;;;;;230.90;2176.00;;;;;;4970714;28;20034;-76
2023/11/27 12:39:10;;;;;;;;;;;230.70;2201.60;;;;;;4963050;28;20001;-77
2023/11/27 12:41:36;;;;;;;;;;;230.60;2252.80;;;;;;4967890;28;19993;-76
2023/11/27 12:44:18;;;;;;;;;;;230.70;2176.00;;;;;;4966162;28;19957;-76
2023/11/27 12:46:48;;;;;;;;;;;230.80;2176.00;;;;;;4963961;28;19968;-76
2023/11/27 12:49:20;;;;;;;;;;;230.60;2124.80;;;;;;4979481;28;19997;-76
2023/11/27 12:51:46;;;;;;;;;;;230.60;2099.20;;;;;;4964587;28;19956;-76
2023/11/27 12:54:18;;;;;;;;;;;230.70;2099.20;;;;;;4968269;28;20020;-77
2023/11/27 12:56:56;;;;;;;;;;;230.80;2150.40;;;;;;4972143;28;20017;-76
2023/11/27 12:59:23;;;;;;;;;;;230.80;2124.80;;;;;;4966495;28;19915;-76
2023/11/27 13:01:57;;;;;;;;;;;230.60;2150.40;;;;;;4968976;28;20348;-76
2023/11/27 13:04:29;;;;;;;;;;;230.70;2124.80;;;;;;4965066;28;20336;-76
2023/11/27 13:07:05;;;;;;;;;;;230.70;2124.80;;;;;;4971185;28;20260;-76
2023/11/27 13:09:31;;;;;;;;;;;230.80;2124.80;;;;;;4987007;28;19906;-77
2023/11/27 13:11:56;;;;;;;;;;;230.70;2124.80;;;;;;4961963;28;19906;-76
2023/11/27 13:14:22;;;;;;;;;;;230.80;2073.60;;;;;;4968961;28;20442;-75
2023/11/27 13:16:48;;;;;;;;;;;230.80;2073.60;;;;;;4961484;28;19913;-76
2023/11/27 13:19:14;;;;;;;;;;;230.80;2099.20;;;;;;4980710;28;19914;-76
2023/11/27 13:21:40;;;;;;;;;;;230.80;2073.60;;;;;;4983555;28;19945;-76
2023/11/27 13:24:06;;;;;;;;;;;230.80;2048.00;;;;;;4969069;28;20375;-76
2023/11/27 13:26:37;;;;;;;;;;;230.80;2048.00;;;;;;4978993;28;19960;-77
2023/11/27 13:29:03;;;;;;;;;;;230.80;2022.40;;;;;;4972400;28;19992;-76
2023/11/27 13:31:29;;;;;;;;;;;230.80;2022.40;;;;;;4971466;28;19953;-76
2023/11/27 13:33:55;;;;;;;;;;;230.90;2073.60;;;;;;4970591;28;19906;-77
2023/11/27 13:36:22;;;;;;;;;;;231.00;2073.60;;;;;;4973582;28;19913;-76
2023/11/27 13:38:49;;;;;;;;;;;231.00;2073.60;;;;;;4975541;28;19953;-76
2023/11/27 13:41:14;;;;;;;;;;;231.10;2073.60;;;;;;4969986;28;20363;-76
2023/11/27 13:43:40;;;;;;;;;;;231.00;2073.60;;;;;;4971527;28;20005;-76